Tuesday, June 19, 2018, 12:53 AM EDT
Back to Local

KISP, Islip Long Island Mac Art

Location: Ronkonkoma, NY, United States Lat: 40.8
Local Time: 12:53 AM EDT ( 4:53 GMT) Lon: -73.1
Time Zone: US/Eastern Elev: 98 ft

Show me the last for .
Show Decoded

2018-06-18 23:56 METAR KISP 190356Z 20008KT 10SM FEW055 SCT150 BKN250 23/21 A2978 RMK AO2 SLP082
                 LAST T02280211 =
2018-06-18 22:56 METAR KISP 190256Z 23009KT 10SM FEW045 FEW060 SCT150 BKN250 22/21 A2980 RMK AO2
                 RAE00 SLP088 P0000 60001 T02220206 58009 =
2018-06-18 21:56 METAR KISP 190156Z 23007KT 10SM -RA FEW020 SCT042 BKN060 BKN130 OVC250 22/18
                 A2984 RMK AO2 RAB43 SLP102 P0001 T02220183 =
2018-06-18 20:56 METAR KISP 190056Z 22011KT 10SM FEW055 BKN120 BKN170 OVC250 24/17 A2981 RMK AO2
                 LTG DSNT N AND NE SLP093 OCNL LTGICCG DSNT W-NW CB DSNT W-NW T02390167 =
2018-06-18 19:56 METAR KISP 182356Z 21012KT 10SM FEW055 FEW120 SCT170 OVC250 24/17 A2982 RMK AO2
                 PK WND 22026/2302 SLP099 T02390167 10283 20239 55016 =
2018-06-18 18:56 METAR KISP 182256Z 22013G20KT 10SM FEW055 FEW120 BKN250 24/18 A2981 RMK AO2
                 SLP096 T02390178 =
2018-06-18 17:56 METAR KISP 182156Z 21016G22KT 10SM FEW120 BKN250 25/18 A2984 RMK AO2 SLP104
                 T02500178 =
2018-06-18 16:56 METAR KISP 182056Z 21015G22KT 10SM FEW120 BKN250 27/18 A2987 RMK AO2 PK WND
                 23026/2036 SLP114 T02670178 56027 =
2018-06-18 15:56 METAR KISP 181956Z 20013KT 10SM OVC250 28/17 A2989 RMK AO2 SLP120 T02780172 =
2018-06-18 14:56 METAR KISP 181856Z 22015G20KT 10SM BKN250 27/18 A2992 RMK AO2 SLP133 T02670183 =
2018-06-18 13:56 METAR KISP 181756Z 21016KT 10SM FEW010 BKN250 27/19 A2995 RMK AO2 SLP140
                 T02720189 10278 20222 58016 =
2018-06-18 12:56 METAR KISP 181656Z 21015KT 10SM FEW045 BKN250 27/19 A2998 RMK AO2 SLP149
                 T02720194 =
2018-06-18 11:56 METAR KISP 181556Z 20013KT 10SM BKN250 26/19 A2999 RMK AO2 SLP153 T02610194 =
2018-06-18 10:56 METAR KISP 181456Z 21009KT 10SM BKN250 27/20 A3000 RMK AO2 SLP156 T02670200
                 56015 =
2018-06-18 09:56 METAR KISP 181356Z 20011KT 10SM FEW008 FEW080 BKN250 25/21 A3001 RMK AO2 SLP162
                 T02500206 =
2018-06-18 08:56 METAR KISP 181256Z 21009KT 10SM SCT008 BKN250 23/21 A3003 RMK AO2 SLP167
                 T02330206 =
2018-06-18 07:56 METAR KISP 181156Z 21011KT 10SM BKN008 BKN250 22/21 A3004 RMK AO2 SLP172
                 T02220206 10222 20200 56005 =
2018-06-18 07:08 METAR KISP 181108Z 22010KT 10SM BKN008 BKN250 21/20 A3005 RMK AO2 T02110200 =
2018-06-18 06:56 METAR KISP 181056Z 21009KT 10SM FEW015 FEW200 BKN250 21/20 A3005 RMK AO2 SLP174
                 T02110200 =
2018-06-18 05:56 METAR KISP 180956Z 21007KT 10SM FEW200 BKN250 21/19 A3005 RMK AO2 SLP173
                 T02060194 =
2018-06-18 04:56 METAR KISP 180856Z AUTO 22005KT 10SM CLR 20/19 A3006 RMK AO2 SLP176 T02000194
                 56004 =
2018-06-18 03:56 METAR KISP 180756Z AUTO 21005KT 10SM CLR 20/19 A3006 RMK AO2 SLP177 T02000194 =
2018-06-18 02:56 METAR KISP 180656Z AUTO 23004KT 10SM CLR 20/19 A3006 RMK AO2 SLP179 T02000194 =
2018-06-18 01:56 METAR KISP 180556Z AUTO 23007KT 10SM CLR 21/19 A3007 RMK AO2 SLP180 T02110194
                 10228 20211 58002 =
2018-06-18 00:56 METAR KISP 180456Z AUTO 21009KT 10SM CLR 21/18 A3007 RMK AO2 SLP182 T02110183
                 403060144 =

Support USWX by starting your Amazon purchase here.